Time;durP1;ratioP1;P1;durP2;ratioP2;P2;SDS_P1;SDS_P2;PMS_P1;PMS_P2;Temp;Humidity;BMP_temperature;BMP_pressure;BME280_temperature;BME280_humidity;BME280_pressure;Samples;Min_cycle;Max_cycle;Signal;HPM_P1;HPM_P2
2023/03/21 00:01:28;;;;;;;1.02;0.35;;;;;;;10.53;93.11;99620.16;5047882;28;20068;-48
2023/03/21 00:03:55;;;;;;;1.08;0.30;;;;;;;10.50;93.20;99626.44;5050986;28;20052;-44
2023/03/21 00:06:22;;;;;;;0.32;0.32;;;;;;;10.49;93.10;99615.72;5050787;28;20195;-47
2023/03/21 00:08:49;;;;;;;0.52;0.35;;;;;;;10.45;92.96;99614.88;5033155;28;20083;-44
2023/03/21 00:11:15;;;;;;;0.30;0.30;;;;;;;10.40;93.13;99621.53;5050820;28;20049;-47
2023/03/21 00:13:42;;;;;;;0.88;0.40;;;;;;;10.38;93.17;99610.81;5051097;28;20079;-41
2023/03/21 00:16:15;;;;;;;0.43;0.20;;;;;;;10.37;93.00;99611.22;5049738;28;20126;-41
2023/03/21 00:18:51;;;;;;;0.20;0.20;;;;;;;10.34;92.79;99598.13;5032406;28;20060;-42
2023/03/21 00:21:20;;;;;;;1.30;0.50;;;;;;;10.32;92.82;99606.81;5040916;28;20041;-42
2023/03/21 00:24:06;;;;;;;1.27;0.60;;;;;;;10.27;92.73;99598.78;5027220;28;20045;-41
2023/03/21 00:26:34;;;;;;;1.27;0.63;;;;;;;10.23;92.76;99597.94;5045753;28;20041;-43
2023/03/21 00:29:01;;;;;;;2.58;0.50;;;;;;;10.21;92.71;99592.00;5045400;28;20045;-42
2023/03/21 00:31:28;;;;;;;2.83;0.50;;;;;;;10.19;92.75;99579.72;5051205;28;20491;-42
2023/03/21 00:33:55;;;;;;;1.35;0.50;;;;;;;10.18;92.68;99580.88;5050218;28;20041;-42
2023/03/21 00:36:24;;;;;;;0.25;0.20;;;;;;;10.15;92.67;99576.06;5050238;28;20041;-41
2023/03/21 00:38:52;;;;;;;2.08;0.50;;;;;;;10.13;92.51;99584.75;5050739;28;20459;-41
2023/03/21 00:41:19;;;;;;;0.60;0.20;;;;;;;10.13;92.57;99575.66;5038492;28;20041;-41
2023/03/21 00:44:04;;;;;;;0.30;0.30;;;;;;;10.09;92.74;99581.09;5043775;28;20459;-42
2023/03/21 00:46:31;;;;;;;0.55;0.22;;;;;;;10.07;92.56;99586.19;5043017;28;20422;-42
2023/03/21 00:49:12;;;;;;;1.40;0.30;;;;;;;10.09;92.70;99574.75;5042989;28;20145;-41
2023/03/21 00:51:39;;;;;;;0.32;0.20;;;;;;;10.10;92.65;99581.88;5044506;28;20495;-42
2023/03/21 00:54:06;;;;;;;0.93;0.30;;;;;;;10.11;92.64;99578.75;5045161;28;20491;-44
2023/03/21 00:56:33;;;;;;;1.15;0.30;;;;;;;10.12;92.53;99580.38;5042038;28;20112;-41
2023/03/21 00:59:00;;;;;;;1.33;0.38;;;;;;;10.14;92.54;99566.97;5049314;28;20064;-41
2023/03/21 01:01:30;;;;;;;1.17;0.30;;;;;;;10.17;92.62;99560.69;5042529;28;20057;-48
2023/03/21 01:04:06;;;;;;;0.77;0.40;;;;;;;10.20;92.62;99562.72;5041769;28;20556;-42
2023/03/21 01:06:39;;;;;;;1.95;0.38;;;;;;;10.23;92.71;99556.47;5048299;28;20111;-42
2023/03/21 01:09:11;;;;;;;1.38;0.40;;;;;;;10.26;92.56;99552.97;5042085;28;20085;-42
2023/03/21 01:11:38;;;;;;;;;;;;;;;10.26;92.46;99552.16;5046748;28;20137;-42
2023/03/21 01:14:05;;;;;;;0.60;0.28;;;;;;;10.26;92.39;99547.41;5050298;28;20023;-41
2023/03/21 01:16:47;;;;;;;0.47;0.20;;;;;;;10.29;92.46;99540.34;5047446;28;20072;-41
2023/03/21 01:19:17;;;;;;;1.25;0.70;;;;;;;10.31;92.55;99544.34;5049874;28;20047;-42
2023/03/21 01:21:55;;;;;;;1.08;0.55;;;;;;;10.35;92.48;99538.88;5053855;28;20044;-41
2023/03/21 01:24:22;;;;;;;1.17;0.28;;;;;;;10.36;92.38;99537.69;5049867;28;20045;-42
2023/03/21 01:26:49;;;;;;;1.30;0.52;;;;;;;10.35;92.50;99531.34;5045490;28;20045;-42
2023/03/21 01:29:15;;;;;;;0.90;0.40;;;;;;;10.36;92.63;99521.88;5049346;28;20044;-42
2023/03/21 01:31:42;;;;;;;2.92;0.88;;;;;;;10.35;92.75;99516.72;5049542;28;20483;-42
2023/03/21 01:34:09;;;;;;;1.33;0.50;;;;;;;10.35;92.81;99495.38;5046063;28;20037;-42
2023/03/21 01:36:35;;;;;;;3.22;0.52;;;;;;;10.36;92.99;99499.75;5044561;28;20045;-42
2023/03/21 01:39:05;;;;;;;0.85;0.50;;;;;;;10.35;93.02;99497.38;5044483;28;20045;-41
2023/03/21 01:41:37;;;;;;;5.10;2.05;;;;;;;10.33;93.08;99497.72;5048788;28;20461;-42
2023/03/21 01:44:18;;;;;;;4.57;1.00;;;;;;;10.30;93.37;99509.53;5040016;28;20041;-45
2023/03/21 01:46:48;;;;;;;6.63;1.17;;;;;;;10.26;93.72;99497.63;5043535;28;20103;-42
2023/03/21 01:49:39;;;;;;;9.00;1.63;;;;;;;10.23;93.69;99480.97;5044016;28;20080;-43
2023/03/21 01:52:09;;;;;;;15.70;1.88;;;;;;;10.21;94.09;99489.66;5044898;28;20048;-45
2023/03/21 01:54:45;;;;;;;13.45;2.90;;;;;;;10.20;94.35;99485.28;5039681;28;20056;-45
2023/03/21 01:57:20;;;;;;;10.20;1.77;;;;;;;10.18;94.49;99482.09;5046999;28;20036;-42
2023/03/21 01:59:50;;;;;;;10.15;1.63;;;;;;;10.18;94.70;99484.06;5041333;28;20124;-42
2023/03/21 02:02:25;;;;;;;9.90;2.33;;;;;;;10.17;94.85;99465.88;5039955;28;20053;-45
2023/03/21 02:04:56;;;;;;;16.52;3.03;;;;;;;10.17;95.17;99477.72;5052549;28;20067;-42
2023/03/21 02:07:28;;;;;;;13.07;3.65;;;;;;;10.16;95.21;99462.31;5049557;28;20256;-42
2023/03/21 02:09:56;;;;;;;9.13;2.40;;;;;;;10.13;95.48;99460.31;5036264;28;20419;-42
2023/03/21 02:12:26;;;;;;;10.40;2.40;;;;;;;10.11;95.76;99454.28;5048927;28;20049;-42
2023/03/21 02:14:55;;;;;;;8.48;2.03;;;;;;;10.09;95.84;99442.81;5047255;28;20166;-43
2023/03/21 02:17:37;;;;;;;8.02;2.88;;;;;;;10.05;95.98;99427.34;5048176;28;20037;-42
2023/03/21 02:20:24;;;;;;;21.55;2.80;;;;;;;10.01;96.08;99430.06;5048622;28;20103;-41
2023/03/21 02:23:03;;;;;;;12.60;3.72;;;;;;;9.98;96.32;99419.75;5043128;28;20049;-44
2023/03/21 02:25:44;;;;;;;8.00;1.90;;;;;;;9.93;96.38;99409.00;5048580;28;20094;-43
2023/03/21 02:28:21;;;;;;;9.07;1.75;;;;;;;9.87;96.64;99406.94;5045077;28;20036;-42
2023/03/21 02:31:02;;;;;;;11.35;1.98;;;;;;;9.83;96.78;99409.66;5054022;28;20049;-42
2023/03/21 02:33:45;;;;;;;10.80;1.88;;;;;;;9.76;96.74;99404.84;5037749;28;20043;-42
2023/03/21 02:36:25;;;;;;;11.30;2.78;;;;;;;9.71;96.94;99412.63;5048413;28;20415;-42
2023/03/21 02:39:06;;;;;;;10.38;1.70;;;;;;;9.69;97.16;99409.44;5048533;28;20128;-42
2023/03/21 02:42:14;;;;;;;9.15;1.92;;;;;;;9.70;97.39;99405.50;5047615;28;20372;-41
2023/03/21 02:44:53;;;;;;;10.00;2.00;;;;;;;9.71;97.47;99388.56;5023432;28;20513;-42
2023/03/21 02:47:29;;;;;;;17.20;3.35;;;;;;;9.69;97.47;99395.63;5046775;28;20088;-42
2023/03/21 02:49:59;;;;;;;10.93;2.25;;;;;;;9.70;97.54;99391.69;5041951;28;20349;-46
2023/03/21 02:52:30;;;;;;;14.57;2.50;;;;;;;9.72;97.79;99395.69;5045729;28;20399;-46
2023/03/21 02:55:12;;;;;;;16.80;3.00;;;;;;;9.75;97.81;99389.41;5041048;28;20087;-41
2023/03/21 02:57:42;;;;;;;20.52;2.63;;;;;;;9.73;98.10;99383.47;5043000;28;20095;-42
2023/03/21 03:02:53;;;;;;;13.85;2.65;;;;;;;9.74;98.20;99378.75;4935364;23;20054;-42
2023/03/21 03:05:39;;;;;;;21.77;2.83;;;;;;;9.75;98.09;99369.25;4990470;28;20097;-42
2023/03/21 03:08:39;;;;;;;9.15;1.80;;;;;;;9.77;98.35;99369.69;4987208;28;20050;-42
2023/03/21 03:11:36;;;;;;;15.80;3.50;;;;;;;9.76;98.35;99359.81;4986878;28;20129;-42
2023/03/21 03:14:36;;;;;;;7.18;2.17;;;;;;;9.77;98.43;99359.44;4973905;28;20565;-42
2023/03/21 03:17:45;;;;;;;11.90;3.03;;;;;;;9.77;98.61;99358.63;4969226;28;20057;-42
2023/03/21 03:20:31;;;;;;;16.35;4.40;;;;;;;9.76;98.70;99348.75;4993163;28;20042;-42
2023/03/21 03:23:18;;;;;;;12.15;2.38;;;;;;;9.74;98.72;99337.28;4990238;28;20133;-43
2023/03/21 03:25:54;;;;;;;10.85;1.73;;;;;;;9.70;98.85;99348.28;4975650;28;20531;-44
2023/03/21 03:28:28;;;;;;;16.00;2.50;;;;;;;9.67;99.09;99337.16;4979859;28;20555;-43
2023/03/21 03:30:58;;;;;;;15.18;3.42;;;;;;;9.64;99.09;99335.13;4992641;28;20057;-43
2023/03/21 03:33:39;;;;;;;15.07;2.88;;;;;;;9.61;99.46;99333.91;4992909;28;20050;-42
2023/03/21 03:36:10;;;;;;;20.45;4.05;;;;;;;9.58;99.67;99328.38;4992582;28;20101;-47
2023/03/21 03:38:52;;;;;;;18.77;3.72;;;;;;;9.57;99.78;99321.22;4987520;28;20050;-47
2023/03/21 03:41:26;;;;;;;15.00;2.92;;;;;;;9.58;99.73;99317.31;4969024;28;20042;-42
2023/03/21 03:43:58;;;;;;;15.90;2.88;;;;;;;9.57;100.00;99315.72;4989000;28;20056;-42
2023/03/21 03:46:39;;;;;;;14.07;3.28;;;;;;;9.55;100.00;99310.56;4990782;28;20057;-42
2023/03/21 03:49:21;;;;;;;20.73;5.80;;;;;;;9.56;100.00;99314.91;4989252;28;20118;-42
2023/03/21 03:51:58;;;;;;;11.68;2.33;;;;;;;9.57;100.00;99310.97;4991963;28;20057;-42
2023/03/21 03:54:35;;;;;;;16.15;4.38;;;;;;;9.58;100.00;99306.25;4988375;28;20047;-42
2023/03/21 03:57:04;;;;;;;14.70;3.50;;;;;;;9.60;100.00;99303.91;4990459;28;20042;-42
2023/03/21 03:59:34;;;;;;;16.30;3.97;;;;;;;9.62;100.00;99301.56;4987931;28;20114;-42
2023/03/21 04:02:02;;;;;;;17.73;3.20;;;;;;;9.61;100.00;99302.75;4998313;28;20046;-42
2023/03/21 04:04:30;;;;;;;17.88;4.60;;;;;;;9.62;100.00;99293.28;5007975;28;20038;-47
2023/03/21 04:06:57;;;;;;;10.85;2.97;;;;;;;9.61;100.00;99291.69;5009123;28;20038;-47
2023/03/21 04:09:29;;;;;;;13.75;2.83;;;;;;;9.62;100.00;99285.00;5009378;28;20083;-42
2023/03/21 04:12:09;;;;;;;11.63;2.75;;;;;;;9.62;100.00;99291.31;4989566;28;20053;-42
2023/03/21 04:14:36;;;;;;;18.52;3.42;;;;;;;9.62;100.00;99273.94;5007485;28;20038;-43
2023/03/21 04:17:11;;;;;;;12.10;3.78;;;;;;;9.61;100.00;99272.38;5006877;28;20050;-43
2023/03/21 04:19:37;;;;;;;18.02;3.78;;;;;;;9.61;100.00;99270.38;4989543;28;20056;-43
2023/03/21 04:22:04;;;;;;;13.20;2.78;;;;;;;9.61;100.00;99258.53;5009161;28;20084;-42
2023/03/21 04:24:32;;;;;;;16.98;3.05;;;;;;;9.63;100.00;99265.28;5009226;28;20046;-42
2023/03/21 04:27:00;;;;;;;19.75;3.67;;;;;;;9.63;100.00;99261.72;5007868;28;20053;-43
2023/03/21 04:29:28;;;;;;;25.42;3.75;;;;;;;9.63;100.00;99243.19;5017233;28;20052;-42
2023/03/21 04:31:55;;;;;;;23.08;3.58;;;;;;;9.61;100.00;99250.25;5009308;28;20042;-45
2023/03/21 04:34:26;;;;;;;17.00;3.92;;;;;;;9.59;100.00;99244.28;5008199;28;20038;-43
2023/03/21 04:36:54;;;;;;;12.77;3.30;;;;;;;9.55;100.00;99240.69;5009085;28;20045;-43
2023/03/21 04:39:23;;;;;;;15.13;3.65;;;;;;;9.52;100.00;99225.66;5009001;28;20052;-42
2023/03/21 04:41:50;;;;;;;12.68;3.15;;;;;;;9.52;100.00;99235.91;5009461;28;20542;-43
2023/03/21 04:44:17;;;;;;;16.65;3.47;;;;;;;9.52;100.00;99244.22;4989929;28;20453;-42
2023/03/21 04:46:44;;;;;;;24.55;5.35;;;;;;;9.51;100.00;99235.13;5013957;28;20049;-42
2023/03/21 04:49:11;;;;;;;20.48;3.47;;;;;;;9.52;100.00;99236.72;5009989;28;20049;-43
2023/03/21 04:51:38;;;;;;;17.33;5.35;;;;;;;9.54;100.00;99233.56;5009067;28;20411;-44
2023/03/21 04:54:05;;;;;;;19.00;3.75;;;;;;;9.57;100.00;99232.81;5010734;28;20046;-43
2023/03/21 04:56:34;;;;;;;16.25;3.30;;;;;;;9.59;100.00;99241.53;5010906;28;20046;-42
2023/03/21 04:59:07;;;;;;;22.98;3.75;;;;;;;9.62;100.00;99229.72;5010648;28;20164;-42
2023/03/21 05:01:34;;;;;;;15.35;3.83;;;;;;;9.64;100.00;99243.97;5011338;28;20054;-44
2023/03/21 05:04:02;;;;;;;16.48;3.17;;;;;;;9.64;100.00;99238.44;5010393;28;20042;-43
2023/03/21 05:06:29;;;;;;;22.15;2.42;;;;;;;9.63;100.00;99242.38;5010688;28;20503;-42
2023/03/21 05:09:00;;;;;;;12.07;2.53;;;;;;;9.64;100.00;99241.19;5010840;28;20081;-42
2023/03/21 05:11:29;;;;;;;21.97;4.10;;;;;;;9.66;100.00;99231.34;5011038;28;20088;-45
2023/03/21 05:13:57;;;;;;;17.13;2.35;;;;;;;9.67;100.00;99232.97;5009325;28;20077;-44
2023/03/21 05:16:25;;;;;;;16.10;3.28;;;;;;;9.67;100.00;99232.16;5010790;28;20057;-42
2023/03/21 05:18:54;;;;;;;6.55;1.80;;;;;;;9.67;100.00;99226.63;5014135;28;20402;-44
2023/03/21 05:21:22;;;;;;;13.25;2.35;;;;;;;9.67;100.00;99221.91;5018863;28;20046;-42
2023/03/21 05:23:57;;;;;;;10.27;2.13;;;;;;;9.69;100.00;99222.31;5008652;28;20381;-42
2023/03/21 05:26:24;;;;;;;6.45;2.60;;;;;;;9.70;100.00;99214.81;4997190;28;20039;-42
2023/03/21 05:28:50;;;;;;;10.45;1.67;;;;;;;9.72;100.00;99218.00;5008235;28;20076;-42
2023/03/21 05:31:17;;;;;;;9.43;2.45;;;;;;;9.73;100.00;99216.84;5009210;28;20064;-42
2023/03/21 05:33:45;;;;;;;7.15;1.85;;;;;;;9.74;100.00;99227.50;5008469;28;20109;-45
2023/03/21 05:36:14;;;;;;;9.50;1.80;;;;;;;9.77;100.00;99225.97;5009875;28;20046;-42
2023/03/21 05:38:44;;;;;;;7.65;1.50;;;;;;;9.77;100.00;99228.72;5010093;28;20133;-42
2023/03/21 05:41:12;;;;;;;5.50;1.40;;;;;;;9.79;100.00;99226.41;5008433;28;20092;-42
2023/03/21 05:43:39;;;;;;;3.75;1.30;;;;;;;9.80;100.00;99227.97;5008954;28;20046;-42
2023/03/21 05:46:07;;;;;;;7.63;1.13;;;;;;;9.79;100.00;99218.88;5005806;28;20049;-47
2023/03/21 05:48:34;;;;;;;3.63;0.77;;;;;;;9.79;100.00;99227.16;5008497;28;20447;-42
2023/03/21 05:51:01;;;;;;;4.38;0.88;;;;;;;9.80;100.00;99239.84;5008366;28;20117;-42
2023/03/21 05:53:28;;;;;;;2.63;0.65;;;;;;;9.81;100.00;99237.88;5007644;28;20128;-45
2023/03/21 05:55:55;;;;;;;2.85;0.75;;;;;;;9.82;100.00;99238.66;5007050;28;20053;-42
2023/03/21 05:58:22;;;;;;;1.52;0.30;;;;;;;9.81;100.00;99237.88;5006976;28;20128;-42
2023/03/21 06:00:48;;;;;;;4.93;0.60;;;;;;;9.80;100.00;99231.53;5006837;28;20041;-42
2023/03/21 06:03:15;;;;;;;1.05;0.40;;;;;;;9.82;100.00;99235.91;5006748;28;20049;-43
2023/03/21 06:05:42;;;;;;;0.85;0.28;;;;;;;9.82;100.00;99240.25;5005979;28;20412;-42
2023/03/21 06:08:09;;;;;;;1.63;0.93;;;;;;;9.84;100.00;99244.59;5009445;28;20069;-46
2023/03/21 06:10:36;;;;;;;2.22;0.50;;;;;;;9.85;100.00;99235.16;4991926;28;20128;-43
2023/03/21 06:13:03;;;;;;;0.77;0.40;;;;;;;9.84;100.00;99245.41;5008107;28;20488;-42
2023/03/21 06:15:30;;;;;;;2.90;0.60;;;;;;;9.85;100.00;99243.44;5007701;28;20050;-44
2023/03/21 06:17:57;;;;;;;1.83;0.40;;;;;;;9.85;100.00;99243.44;5009101;28;20050;-48
2023/03/21 06:20:24;;;;;;;4.97;0.45;;;;;;;9.83;100.00;99235.53;5009460;28;20049;-42
2023/03/21 06:22:50;;;;;;;3.05;0.40;;;;;;;9.83;100.00;99249.34;5009229;28;20407;-42
2023/03/21 06:25:17;;;;;;;2.33;1.00;;;;;;;9.82;100.00;99247.75;5009735;28;20092;-42
2023/03/21 06:27:45;;;;;;;3.42;0.57;;;;;;;9.81;100.00;99257.22;5009188;28;20057;-42
2023/03/21 06:30:12;;;;;;;3.90;0.60;;;;;;;9.80;100.00;99267.47;5009115;28;20129;-42
2023/03/21 06:32:39;;;;;;;1.85;0.65;;;;;;;9.80;100.00;99269.44;5008941;28;20056;-42
2023/03/21 06:35:06;;;;;;;4.97;0.80;;;;;;;9.80;100.00;99267.47;5009337;28;20034;-43
2023/03/21 06:37:33;;;;;;;2.40;0.38;;;;;;;9.81;100.00;99282.09;5007718;28;20042;-42
2023/03/21 06:39:59;;;;;;;6.95;0.70;;;;;;;9.82;100.00;99284.47;5008686;28;20057;-42
2023/03/21 06:42:26;;;;;;;3.20;0.65;;;;;;;9.81;100.00;99276.56;5009434;28;20038;-43
2023/03/21 06:44:53;;;;;;;6.82;0.70;;;;;;;9.80;100.00;99286.00;5009229;28;20046;-42
2023/03/21 06:47:20;;;;;;;1.75;0.57;;;;;;;9.76;100.00;99286.00;5010432;28;20045;-42
2023/03/21 06:49:46;;;;;;;6.78;1.33;;;;;;;9.75;100.00;99289.09;5008661;28;20061;-42
2023/03/21 06:52:13;;;;;;;1.83;1.13;;;;;;;9.71;100.00;99299.34;5009331;28;20050;-42
2023/03/21 06:54:40;;;;;;;4.22;0.57;;;;;;;9.69;100.00;99293.38;5012345;28;20061;-42
2023/03/21 06:57:06;;;;;;;2.90;0.70;;;;;;;9.70;100.00;99298.53;5010699;28;20046;-42
2023/03/21 06:59:33;;;;;;;6.68;0.63;;;;;;;9.69;100.00;99290.59;5010042;28;20563;-42
2023/03/21 07:02:00;;;;;;;4.85;0.77;;;;;;;9.68;100.00;99300.06;5016703;28;20058;-44
2023/03/21 07:04:28;;;;;;;2.00;0.60;;;;;;;9.65;100.00;99318.22;5007329;28;20038;-47
2023/03/21 07:06:54;;;;;;;3.13;0.80;;;;;;;9.62;100.00;99315.38;5012008;28;20064;-44
2023/03/21 07:09:23;;;;;;;3.97;0.60;;;;;;;9.58;100.00;99306.25;5011549;28;20136;-42
2023/03/21 07:11:52;;;;;;;2.90;0.50;;;;;;;9.57;100.00;99310.97;5011461;28;20128;-43
2023/03/21 07:14:19;;;;;;;2.97;0.77;;;;;;;9.56;100.00;99308.56;5007796;28;20080;-43
2023/03/21 07:16:45;;;;;;;8.15;0.73;;;;;;;9.60;100.00;99314.97;5011920;28;20057;-43
2023/03/21 07:19:13;;;;;;;0.68;0.68;;;;;;;9.65;100.00;99317.41;5010968;28;20455;-43
2023/03/21 07:21:39;;;;;;;1.70;0.77;;;;;;;9.71;100.00;99321.44;4993910;28;20058;-43
2023/03/21 07:24:06;;;;;;;0.65;0.60;;;;;;;9.76;100.00;99332.16;5009761;28;20046;-46
2023/03/21 07:26:33;;;;;;;1.98;0.85;;;;;;;9.82;100.00;99334.22;5011157;28;20506;-44
2023/03/21 07:29:00;;;;;;;1.13;0.57;;;;;;;9.87;100.00;99335.09;5006837;28;20514;-43
2023/03/21 07:31:28;;;;;;;3.38;0.45;;;;;;;9.89;100.00;99333.53;5007900;28;20054;-44
2023/03/21 07:33:55;;;;;;;2.88;0.50;;;;;;;9.92;100.00;99341.09;5011088;28;20052;-44
2023/03/21 07:36:22;;;;;;;2.97;0.70;;;;;;;9.99;100.00;99341.16;5012972;28;20064;-44
2023/03/21 07:38:49;;;;;;;2.55;0.50;;;;;;;10.02;100.00;99348.72;5010645;28;20109;-45
2023/03/21 07:41:17;;;;;;;0.93;0.47;;;;;;;10.06;100.00;99346.78;5005563;28;20042;-44
2023/03/21 07:43:44;;;;;;;0.63;0.50;;;;;;;10.10;100.00;99350.41;5011915;28;20438;-46
2023/03/21 07:46:10;;;;;;;1.38;0.57;;;;;;;10.15;100.00;99344.56;5012086;28;20045;-44
2023/03/21 07:48:38;;;;;;;1.30;0.30;;;;;;;10.18;100.00;99348.53;5011738;28;20108;-44
2023/03/21 07:51:05;;;;;;;0.55;0.43;;;;;;;10.20;100.00;99354.50;5011374;28;20457;-45
2023/03/21 07:53:32;;;;;;;3.80;0.65;;;;;;;10.20;100.00;99371.88;5012447;28;20042;-46
2023/03/21 07:55:58;;;;;;;1.92;0.55;;;;;;;10.22;100.00;99363.19;5011494;28;20068;-46
2023/03/21 07:58:27;;;;;;;3.03;0.50;;;;;;;10.21;100.00;99367.16;5011894;28;20401;-45
2023/03/21 08:00:55;;;;;;;3.55;0.45;;;;;;;10.19;100.00;99375.81;5011581;28;20523;-44
2023/03/21 08:03:22;;;;;;;1.58;0.40;;;;;;;10.17;100.00;99386.47;5011489;28;20137;-44
2023/03/21 08:05:49;;;;;;;1.23;0.60;;;;;;;10.15;100.00;99394.34;5011910;28;20125;-44
2023/03/21 08:08:16;;;;;;;1.88;0.65;;;;;;;10.12;100.00;99397.84;5011247;28;20077;-47
2023/03/21 08:10:43;;;;;;;1.98;0.95;;;;;;;10.11;100.00;99404.50;5012708;28;20045;-44
2023/03/21 08:13:10;;;;;;;3.20;0.52;;;;;;;10.04;100.00;99398.91;5008966;28;20088;-45
2023/03/21 08:15:38;;;;;;;1.17;0.40;;;;;;;10.02;100.00;99398.47;5008093;28;20080;-52
2023/03/21 08:18:05;;;;;;;2.30;0.40;;;;;;;10.04;100.00;99396.13;5010535;28;20495;-44
2023/03/21 08:20:32;;;;;;;1.38;0.70;;;;;;;10.02;100.00;99390.19;4965928;28;20054;-44
2023/03/21 08:22:59;;;;;;;1.20;1.13;;;;;;;10.02;100.00;99373.59;4999737;28;20046;-45
2023/03/21 08:25:25;;;;;;;1.92;0.70;;;;;;;10.07;100.00;99372.47;4998289;28;20064;-48
2023/03/21 08:27:52;;;;;;;2.83;0.50;;;;;;;10.14;100.00;99375.38;5004646;28;20595;-45
2023/03/21 08:30:21;;;;;;;2.70;0.38;;;;;;;10.24;100.00;99383.81;5007376;28;20046;-44
2023/03/21 08:32:49;;;;;;;1.42;0.50;;;;;;;10.37;100.00;99379.63;5007454;28;20496;-44
2023/03/21 08:35:17;;;;;;;1.13;0.38;;;;;;;10.49;100.00;99372.22;5005258;28;20125;-44
2023/03/21 08:37:44;;;;;;;1.83;0.50;;;;;;;10.52;100.00;99377.00;5009723;28;20412;-44
2023/03/21 08:40:14;;;;;;;1.52;0.55;;;;;;;10.49;100.00;99372.22;4983820;28;20050;-44
2023/03/21 08:42:42;;;;;;;1.95;0.80;;;;;;;10.43;100.00;99384.81;4990621;28;20053;-46
2023/03/21 08:45:11;;;;;;;2.17;0.60;;;;;;;10.43;100.00;99393.13;5007566;28;20165;-51
2023/03/21 08:47:38;;;;;;;2.10;0.93;;;;;;;10.49;100.00;99389.63;4990252;28;20479;-45
2023/03/21 08:50:07;;;;;;;2.95;0.50;;;;;;;10.46;100.00;99389.59;5003764;28;20103;-44
2023/03/21 08:52:34;;;;;;;3.47;0.80;;;;;;;10.42;100.00;99394.28;5009504;28;20037;-44
2023/03/21 08:55:01;;;;;;;3.88;0.68;;;;;;;10.43;100.00;99384.81;5010367;28;20054;-44
2023/03/21 08:57:28;;;;;;;2.55;0.30;;;;;;;10.49;100.00;99383.28;5008945;28;20048;-45
2023/03/21 08:59:56;;;;;;;1.75;0.30;;;;;;;10.59;100.00;99388.19;5009208;28;20101;-44
2023/03/21 09:02:26;;;;;;;0.90;0.60;;;;;;;10.73;100.00;99393.84;5002669;28;20062;-45
2023/03/21 09:04:53;;;;;;;1.77;0.40;;;;;;;10.86;100.00;99386.88;5004451;28;20108;-44
2023/03/21 09:07:20;;;;;;;2.05;0.60;;;;;;;10.94;100.00;99403.19;5008021;28;20132;-45
2023/03/21 09:09:47;;;;;;;3.40;0.85;;;;;;;11.00;100.00;99406.41;5006058;28;20496;-47
2023/03/21 09:12:28;;;;;;;4.40;0.68;;;;;;;11.04;100.00;99404.44;5002317;28;20038;-44
2023/03/21 09:14:55;;;;;;;4.32;0.70;;;;;;;11.27;100.00;99412.59;5002524;28;20605;-45
2023/03/21 09:17:22;;;;;;;6.15;0.70;;;;;;;11.43;100.00;99408.41;4992421;28;20061;-45
2023/03/21 09:19:49;;;;;;;4.63;0.82;;;;;;;11.50;100.00;99408.44;5006889;28;20042;-45
2023/03/21 09:22:16;;;;;;;2.78;0.70;;;;;;;11.77;100.00;99402.75;5008869;28;20054;-44
2023/03/21 09:24:47;;;;;;;5.13;0.80;;;;;;;12.41;100.00;99393.59;5006477;28;20536;-45
2023/03/21 09:27:21;;;;;;;4.78;0.82;;;;;;;13.46;100.00;99394.25;4990488;28;20052;-45
2023/03/21 09:29:49;;;;;;;7.50;0.80;;;;;;;14.69;97.50;99404.34;5006638;28;20503;-46
2023/03/21 09:32:17;;;;;;;3.72;0.70;;;;;;;15.50;93.96;99413.00;5008164;28;20053;-48
2023/03/21 09:34:44;;;;;;;4.32;0.50;;;;;;;15.89;91.87;99412.66;5007750;28;20042;-45
2023/03/21 09:37:12;;;;;;;4.85;0.52;;;;;;;16.28;89.84;99423.47;5009516;28;20042;-42
2023/03/21 09:39:40;;;;;;;4.07;0.88;;;;;;;16.86;86.63;99411.22;5006175;28;20064;-42
2023/03/21 09:42:16;;;;;;;6.43;1.45;;;;;;;16.69;83.82;99410.22;5002105;28;20045;-42
2023/03/21 09:45:12;;;;;;;2.42;0.93;;;;;;;15.86;83.48;99407.91;5000133;28;20565;-47
2023/03/21 09:47:48;;;;;;;5.40;1.02;;;;;;;15.44;83.46;99419.41;4991541;28;20088;-43
2023/03/21 09:50:19;;;;;;;2.13;1.15;;;;;;;14.81;82.86;99410.25;5007990;28;20050;-46
2023/03/21 09:52:54;;;;;;;2.50;0.80;;;;;;;14.43;83.65;99411.19;5007630;28;20054;-45
2023/03/21 09:55:25;;;;;;;9.15;3.13;;;;;;;14.06;83.31;99403.31;5007272;28;20046;-46
2023/03/21 09:58:07;;;;;;;4.80;0.80;;;;;;;14.08;84.29;99405.72;5004795;28;20052;-45
2023/03/21 10:00:40;;;;;;;8.00;0.98;;;;;;;14.26;83.91;99401.69;4999960;28;20042;-47
2023/03/21 10:03:33;;;;;;;3.38;0.70;;;;;;;14.38;82.21;99394.91;5009059;28;20072;-49
2023/03/21 10:06:08;;;;;;;4.70;1.15;;;;;;;14.39;80.98;99399.28;4999115;28;20054;-45
2023/03/21 10:08:40;;;;;;;6.43;0.73;;;;;;;14.22;80.02;99394.53;5008198;28;20065;-45
2023/03/21 10:11:34;;;;;;;6.90;0.85;;;;;;;13.82;79.88;99377.13;4989262;28;20045;-52
2023/03/21 10:14:06;;;;;;;4.78;0.95;;;;;;;14.14;81.03;99388.19;5007203;28;20058;-45
2023/03/21 10:16:38;;;;;;;4.18;1.27;;;;;;;15.02;78.20;99393.41;5005720;28;20494;-45
2023/03/21 10:19:17;;;;;;;4.35;1.00;;;;;;;15.43;76.10;99398.31;5007237;28;20056;-46
2023/03/21 10:21:50;;;;;;;4.75;0.68;;;;;;;15.28;75.30;99386.44;5007944;28;20041;-45
2023/03/21 10:24:33;;;;;;;4.72;1.13;;;;;;;15.05;75.65;99381.44;5007009;28;20053;-45
2023/03/21 10:27:02;;;;;;;7.57;0.75;;;;;;;14.81;75.54;99389.94;5009132;28;20133;-45
2023/03/21 10:29:42;;;;;;;1.65;0.55;;;;;;;14.47;76.47;99384.13;5008783;28;20125;-48
2023/03/21 10:32:12;;;;;;;4.22;0.52;;;;;;;14.25;76.43;99372.25;5005176;28;20129;-45
2023/03/21 10:34:43;;;;;;;2.90;0.70;;;;;;;14.34;76.07;99375.44;5006732;28;20107;-45
2023/03/21 10:37:13;;;;;;;2.63;0.73;;;;;;;14.14;75.73;99371.50;4988080;28;20396;-44
2023/03/21 10:39:45;;;;;;;6.25;1.63;;;;;;;13.78;75.86;99370.00;5009027;28;20419;-45
2023/03/21 10:42:22;;;;;;;4.50;0.70;;;;;;;13.49;76.42;99380.34;5008255;28;20124;-48
2023/03/21 10:44:52;;;;;;;2.70;0.60;;;;;;;13.49;77.58;99374.78;5006861;28;20050;-45
2023/03/21 10:47:21;;;;;;;3.42;0.65;;;;;;;13.95;76.25;99377.53;5009975;28;20496;-45
2023/03/21 10:49:48;;;;;;;0.90;0.43;;;;;;;14.30;74.97;99373.81;5010471;28;20487;-44
2023/03/21 10:52:36;;;;;;;2.97;0.30;;;;;;;14.50;73.98;99383.34;5011113;28;20497;-44
2023/03/21 10:55:30;;;;;;;2.05;0.30;;;;;;;14.77;73.28;99376.03;5007173;28;20116;-51
2023/03/21 10:58:09;;;;;;;2.25;0.30;;;;;;;15.76;70.47;99375.31;4998835;28;20132;-45
2023/03/21 11:00:40;;;;;;;1.23;0.30;;;;;;;16.52;68.16;99374.09;4981620;28;20438;-47
2023/03/21 11:03:30;;;;;;;2.05;0.82;;;;;;;16.83;66.96;99370.13;5003947;28;20491;-47
2023/03/21 11:06:26;;;;;;;0.38;0.20;;;;;;;16.97;65.85;99375.50;5008564;28;20137;-46
2023/03/21 11:09:03;;;;;;;0.45;0.13;;;;;;;16.96;66.07;99385.91;4998315;28;20045;-45
2023/03/21 11:11:37;;;;;;;0.98;0.28;;;;;;;16.88;66.02;99392.00;5007862;28;20056;-45
2023/03/21 11:14:08;;;;;;;1.20;0.10;;;;;;;16.37;66.16;99398.59;5001003;28;20042;-44
2023/03/21 11:16:43;;;;;;;1.90;0.30;;;;;;;15.78;67.89;99390.44;5008981;28;20049;-45
2023/03/21 11:19:19;;;;;;;0.45;0.38;;;;;;;15.50;68.63;99385.13;5008912;28;20044;-44
2023/03/21 11:21:46;;;;;;;0.80;0.10;;;;;;;15.23;69.26;99392.47;5008214;28;20057;-44
2023/03/21 11:24:18;;;;;;;0.45;0.00;;;;;;;14.93;69.76;99384.69;5008635;28;20057;-45
2023/03/21 11:26:48;;;;;;;1.38;0.10;;;;;;;14.67;70.05;99388.00;5010944;28;20042;-44
2023/03/21 11:29:33;;;;;;;0.25;0.10;;;;;;;14.52;70.41;99381.72;5012022;28;20042;-47
2023/03/21 11:32:09;;;;;;;2.03;0.20;;;;;;;14.38;70.50;99381.78;5011624;28;20064;-44
2023/03/21 11:34:52;;;;;;;3.35;0.38;;;;;;;14.34;70.86;99374.66;5012687;28;20141;-44
2023/03/21 11:37:45;;;;;;;1.30;0.20;;;;;;;14.19;71.00;99379.41;5011563;28;20068;-44
2023/03/21 11:40:24;;;;;;;1.55;0.40;;;;;;;14.09;71.56;99385.81;5011690;28;20046;-44
2023/03/21 11:42:53;;;;;;;2.20;0.10;;;;;;;14.01;71.77;99389.81;5011824;28;20046;-44
2023/03/21 11:45:24;;;;;;;1.38;0.20;;;;;;;13.90;72.08;99391.81;5011360;28;20038;-44
2023/03/21 11:47:57;;;;;;;0.65;0.20;;;;;;;13.77;72.39;99387.84;5011622;28;20042;-46
2023/03/21 11:50:35;;;;;;;1.00;0.10;;;;;;;13.73;72.62;99378.75;4994723;28;20100;-44
2023/03/21 11:53:34;;;;;;;0.22;0.20;;;;;;;13.74;72.73;99383.88;5011773;28;20377;-44
2023/03/21 11:56:20;;;;;;;0.68;0.20;;;;;;;13.68;72.66;99388.28;5011524;28;20054;-44